sensor_id;sensor_type;location;lat;lon;timestamp;pressure;altitude;pressure_sealevel;temperature;humidity
43691;BME280;29293;52.190;21.226;2023-04-03T00:02:03;100867.77;;;0.88;100.00
43691;BME280;29293;52.190;21.226;2023-04-03T00:17:10;100880.48;;;0.65;100.00
43691;BME280;29293;52.190;21.226;2023-04-03T00:32:17;100888.73;;;0.37;100.00
43691;BME280;29293;52.190;21.226;2023-04-03T00:47:25;100898.11;;;0.10;100.00
43691;BME280;29293;52.190;21.226;2023-04-03T01:02:34;100901.54;;;-0.13;100.00
43691;BME280;29293;52.190;21.226;2023-04-03T01:17:44;100913.15;;;-0.35;100.00
43691;BME280;29293;52.190;21.226;2023-04-03T01:32:51;100933.14;;;-0.54;100.00
43691;BME280;29293;52.190;21.226;2023-04-03T01:47:58;100946.39;;;-0.73;100.00
43691;BME280;29293;52.190;21.226;2023-04-03T02:03:05;100960.20;;;-0.88;100.00
43691;BME280;29293;52.190;21.226;2023-04-03T02:18:13;100971.14;;;-1.08;100.00
43691;BME280;29293;52.190;21.226;2023-04-03T02:33:20;100977.34;;;-1.26;100.00
43691;BME280;29293;52.190;21.226;2023-04-03T02:48:27;100987.27;;;-1.39;100.00
43691;BME280;29293;52.190;21.226;2023-04-03T03:03:35;100995.33;;;-1.56;100.00
43691;BME280;29293;52.190;21.226;2023-04-03T03:18:42;100987.86;;;-1.72;100.00
43691;BME280;29293;52.190;21.226;2023-04-03T03:33:49;101001.70;;;-1.86;100.00
43691;BME280;29293;52.190;21.226;2023-04-03T03:48:55;101007.35;;;-1.98;100.00
43691;BME280;29293;52.190;21.226;2023-04-03T04:04:02;101016.39;;;-2.09;100.00
43691;BME280;29293;52.190;21.226;2023-04-03T04:19:10;101029.94;;;-2.17;100.00
43691;BME280;29293;52.190;21.226;2023-04-03T04:34:16;101039.02;;;-2.28;100.00
43691;BME280;29293;52.190;21.226;2023-04-03T04:49:23;101060.94;;;-2.27;100.00
43691;BME280;29293;52.190;21.226;2023-04-03T05:04:31;101071.17;;;-2.26;100.00
43691;BME280;29293;52.190;21.226;2023-04-03T05:19:38;101082.77;;;-2.17;100.00
43691;BME280;29293;52.190;21.226;2023-04-03T05:34:45;101096.86;;;-2.18;100.00
43691;BME280;29293;52.190;21.226;2023-04-03T05:49:52;101112.05;;;-2.14;100.00
43691;BME280;29293;52.190;21.226;2023-04-03T06:04:59;101118.78;;;-1.82;100.00
43691;BME280;29293;52.190;21.226;2023-04-03T06:20:08;101122.30;;;-1.08;100.00
43691;BME280;29293;52.190;21.226;2023-04-03T06:35:16;101136.32;;;-0.66;100.00
43691;BME280;29293;52.190;21.226;2023-04-03T06:50:23;101140.94;;;-0.16;100.00
43691;BME280;29293;52.190;21.226;2023-04-03T07:05:29;101146.71;;;0.35;100.00
43691;BME280;29293;52.190;21.226;2023-04-03T07:20:37;101166.38;;;0.54;100.00
43691;BME280;29293;52.190;21.226;2023-04-03T07:35:47;101175.85;;;0.85;100.00
43691;BME280;29293;52.190;21.226;2023-04-03T07:50:58;101184.52;;;1.15;100.00
43691;BME280;29293;52.190;21.226;2023-04-03T08:06:08;101190.88;;;1.44;100.00
43691;BME280;29293;52.190;21.226;2023-04-03T08:21:16;101187.06;;;1.48;100.00
43691;BME280;29293;52.190;21.226;2023-04-03T08:36:25;101192.32;;;2.10;100.00
43691;BME280;29293;52.190;21.226;2023-04-03T08:51:33;101188.22;;;2.73;100.00
43691;BME280;29293;52.190;21.226;2023-04-03T09:06:43;101189.49;;;3.13;100.00
43691;BME280;29293;52.190;21.226;2023-04-03T09:21:51;101187.23;;;3.77;100.00
43691;BME280;29293;52.190;21.226;2023-04-03T09:36:59;101188.68;;;3.69;89.71
43691;BME280;29293;52.190;21.226;2023-04-03T09:52:22;101195.95;;;4.23;88.31
43691;BME280;29293;52.190;21.226;2023-04-03T10:07:36;101201.29;;;4.07;71.03
43691;BME280;29293;52.190;21.226;2023-04-03T10:22:53;101202.14;;;4.41;64.94
43691;BME280;29293;52.190;21.226;2023-04-03T10:38:08;101201.36;;;4.98;60.11
43691;BME280;29293;52.190;21.226;2023-04-03T10:53:23;101197.23;;;4.63;53.69
43691;BME280;29293;52.190;21.226;2023-04-03T11:08:42;101198.83;;;4.02;54.01
43691;BME280;29293;52.190;21.226;2023-04-03T11:23:53;101194.05;;;4.03;54.70
43691;BME280;29293;52.190;21.226;2023-04-03T11:39:15;101191.09;;;4.05;53.15
43691;BME280;29293;52.190;21.226;2023-04-03T11:54:45;101179.84;;;4.35;53.25
43691;BME280;29293;52.190;21.226;2023-04-03T12:10:00;101179.02;;;4.48;52.59
43691;BME280;29293;52.190;21.226;2023-04-03T12:25:47;101173.65;;;4.05;53.93
43691;BME280;29293;52.190;21.226;2023-04-03T12:41:00;101167.98;;;4.63;49.17
43691;BME280;29293;52.190;21.226;2023-04-03T12:56:24;101170.16;;;4.77;49.38
43691;BME280;29293;52.190;21.226;2023-04-03T13:11:36;101168.33;;;4.96;48.42
43691;BME280;29293;52.190;21.226;2023-04-03T13:26:44;101161.45;;;4.94;46.72
43691;BME280;29293;52.190;21.226;2023-04-03T13:41:52;101157.95;;;5.44;47.87
43691;BME280;29293;52.190;21.226;2023-04-03T13:57:01;101158.73;;;4.92;45.08
43691;BME280;29293;52.190;21.226;2023-04-03T14:12:13;101162.96;;;4.40;48.01
43691;BME280;29293;52.190;21.226;2023-04-03T14:27:25;101166.66;;;4.46;48.35
43691;BME280;29293;52.190;21.226;2023-04-03T14:42:35;101158.92;;;4.25;48.68
43691;BME280;29293;52.190;21.226;2023-04-03T14:57:49;101160.48;;;4.07;49.23
43691;BME280;29293;52.190;21.226;2023-04-03T15:12:58;101172.66;;;3.80;49.19
43691;BME280;29293;52.190;21.226;2023-04-03T15:28:08;101167.84;;;3.70;49.28
43691;BME280;29293;52.190;21.226;2023-04-03T15:43:15;101172.34;;;3.68;50.33
43691;BME280;29293;52.190;21.226;2023-04-03T15:58:23;101175.53;;;3.51;51.38
43691;BME280;29293;52.190;21.226;2023-04-03T16:13:31;101172.45;;;3.34;51.32
43691;BME280;29293;52.190;21.226;2023-04-03T16:28:39;101172.05;;;3.15;52.32
43691;BME280;29293;52.190;21.226;2023-04-03T16:43:46;101172.30;;;2.96;52.92
43691;BME280;29293;52.190;21.226;2023-04-03T16:58:53;101181.23;;;2.81;53.92
43691;BME280;29293;52.190;21.226;2023-04-03T17:14:00;101195.91;;;2.65;53.33
43691;BME280;29293;52.190;21.226;2023-04-03T17:29:08;101195.58;;;2.44;54.46
43691;BME280;29293;52.190;21.226;2023-04-03T17:44:15;101210.59;;;2.30;55.02
43691;BME280;29293;52.190;21.226;2023-04-03T17:59:22;101230.04;;;2.17;56.05
43691;BME280;29293;52.190;21.226;2023-04-03T18:14:30;101237.09;;;2.05;56.30
43691;BME280;29293;52.190;21.226;2023-04-03T18:29:41;101239.09;;;1.96;57.12
43691;BME280;29293;52.190;21.226;2023-04-03T18:44:50;101243.58;;;1.85;57.86
43691;BME280;29293;52.190;21.226;2023-04-03T18:59:58;101243.13;;;1.86;57.91
43691;BME280;29293;52.190;21.226;2023-04-03T19:15:08;101244.55;;;1.81;58.40
43691;BME280;29293;52.190;21.226;2023-04-03T19:30:15;101244.31;;;1.65;60.05
43691;BME280;29293;52.190;21.226;2023-04-03T19:45:21;101252.96;;;1.55;62.12
43691;BME280;29293;52.190;21.226;2023-04-03T20:00:31;101262.27;;;1.41;64.46
43691;BME280;29293;52.190;21.226;2023-04-03T20:15:38;101266.11;;;1.30;66.20
43691;BME280;29293;52.190;21.226;2023-04-03T20:30:47;101259.45;;;1.17;68.72
43691;BME280;29293;52.190;21.226;2023-04-03T20:45:56;101257.63;;;1.03;71.19
43691;BME280;29293;52.190;21.226;2023-04-03T21:01:13;101257.21;;;0.89;71.96
43691;BME280;29293;52.190;21.226;2023-04-03T21:31:28;101261.74;;;0.61;76.31
43691;BME280;29293;52.190;21.226;2023-04-03T21:46:52;101266.80;;;0.45;79.39
43691;BME280;29293;52.190;21.226;2023-04-03T22:01:59;101266.74;;;0.37;80.71
43691;BME280;29293;52.190;21.226;2023-04-03T22:17:08;101258.25;;;0.27;81.99
43691;BME280;29293;52.190;21.226;2023-04-03T22:32:16;101262.27;;;0.19;82.88
43691;BME280;29293;52.190;21.226;2023-04-03T22:47:23;101261.71;;;0.07;84.69
43691;BME280;29293;52.190;21.226;2023-04-03T23:02:32;101254.73;;;-0.05;84.89
43691;BME280;29293;52.190;21.226;2023-04-03T23:17:39;101251.40;;;-0.22;89.44
43691;BME280;29293;52.190;21.226;2023-04-03T23:32:46;101240.61;;;-0.42;90.44
43691;BME280;29293;52.190;21.226;2023-04-03T23:47:52;101235.92;;;-0.54;90.38
